createdAt,value
2022-08-17T00:01:51.368Z,15.57
2022-08-17T00:04:20.277Z,14.30
2022-08-17T00:06:49.134Z,14.15
2022-08-17T00:09:18.959Z,15.13
2022-08-17T00:12:41.839Z,16.00
2022-08-17T00:14:35.021Z,14.73
2022-08-17T00:17:02.715Z,14.43
2022-08-17T00:19:29.959Z,14.32
2022-08-17T00:22:31.048Z,15.50
2022-08-17T00:24:47.019Z,15.70
2022-08-17T00:27:13.506Z,15.15
2022-08-17T00:29:40.088Z,14.23
2022-08-17T00:33:10.929Z,15.90
2022-08-17T00:34:53.404Z,17.33
2022-08-17T00:37:20.237Z,16.38
2022-08-17T00:39:46.795Z,15.13
2022-08-17T00:42:15.330Z,15.90
2022-08-17T00:44:41.885Z,16.83
2022-08-17T00:47:08.487Z,14.80
2022-08-17T00:49:35.026Z,15.20
2022-08-17T00:52:11.667Z,15.30
2022-08-17T00:54:41.798Z,13.40
2022-08-17T00:57:19.320Z,15.55
2022-08-17T01:00:03.228Z,16.20
2022-08-17T01:02:35.010Z,16.23
2022-08-17T01:05:10.868Z,16.48
2022-08-17T01:07:38.019Z,17.45
2022-08-17T01:10:06.668Z,16.67
2022-08-17T01:12:35.312Z,16.77
2022-08-17T01:15:05.086Z,17.67
2022-08-17T01:17:31.896Z,16.70
2022-08-17T01:19:58.579Z,16.00
2022-08-17T01:22:25.668Z,15.18
2022-08-17T01:25:01.825Z,14.47
2022-08-17T01:27:29.008Z,15.40
2022-08-17T01:29:59.437Z,13.80
2022-08-17T01:32:27.657Z,13.75
2022-08-17T01:34:54.603Z,16.30
2022-08-17T01:37:29.106Z,14.50
2022-08-17T01:40:13.620Z,15.65
2022-08-17T01:42:45.797Z,14.43
2022-08-17T01:45:17.563Z,15.23
2022-08-17T01:47:44.411Z,16.25
2022-08-17T01:50:15.881Z,15.73
2022-08-17T01:52:49.351Z,19.25
2022-08-17T01:55:18.103Z,16.05
2022-08-17T01:57:45.577Z,16.55
2022-08-17T02:00:13.227Z,17.73
2022-08-17T02:02:39.842Z,21.67
2022-08-17T02:05:07.714Z,16.50
2022-08-17T02:08:00.036Z,15.02
2022-08-17T02:10:23.457Z,16.98
2022-08-17T02:12:50.493Z,15.15
2022-08-17T02:15:17.187Z,14.97
2022-08-17T02:17:43.658Z,16.75
2022-08-17T02:20:10.729Z,15.32
2022-08-17T02:22:42.476Z,17.75
2022-08-17T02:25:10.273Z,16.45
2022-08-17T02:27:38.172Z,19.00
2022-08-17T02:30:58.943Z,17.13
2022-08-17T02:32:54.231Z,17.30
2022-08-17T02:35:24.072Z,17.55
2022-08-17T02:37:51.919Z,18.27
2022-08-17T02:40:35.811Z,17.90
2022-08-17T02:43:04.025Z,18.08
2022-08-17T02:45:30.591Z,19.77
2022-08-17T02:47:57.082Z,15.50
2022-08-17T02:50:24.579Z,16.88
2022-08-17T02:52:57.299Z,16.87
2022-08-17T02:55:34.280Z,15.30
2022-08-17T02:58:01.993Z,16.77
2022-08-17T03:00:34.168Z,16.35
2022-08-17T03:03:02.674Z,16.52
2022-08-17T03:05:30.970Z,15.07
2022-08-17T03:07:57.591Z,18.20
2022-08-17T03:10:25.569Z,19.10
2022-08-17T03:12:52.869Z,16.02
2022-08-17T03:15:26.122Z,18.15
2022-08-17T03:17:53.588Z,18.83
2022-08-17T03:20:21.009Z,15.93
2022-08-17T03:22:53.801Z,17.05
2022-08-17T03:25:29.913Z,17.83
2022-08-17T03:27:56.945Z,17.90
2022-08-17T03:30:25.251Z,19.17
2022-08-17T03:32:54.733Z,17.80
2022-08-17T03:35:24.330Z,16.65
2022-08-17T03:37:52.407Z,18.40
2022-08-17T03:40:34.367Z,16.38
2022-08-17T03:43:14.557Z,17.87
2022-08-17T03:46:01.577Z,18.13
2022-08-17T03:48:47.543Z,20.40
2022-08-17T03:51:36.456Z,15.77
2022-08-17T03:54:22.438Z,16.48
2022-08-17T03:57:04.038Z,17.03
2022-08-17T03:59:31.142Z,15.98
2022-08-17T04:02:07.434Z,16.60
2022-08-17T04:04:34.065Z,17.85
2022-08-17T04:07:00.580Z,17.85
2022-08-17T04:09:27.171Z,16.80
2022-08-17T04:11:54.386Z,19.00
2022-08-17T04:14:23.898Z,17.27
2022-08-17T04:16:50.422Z,15.68
2022-08-17T04:19:16.967Z,17.50
2022-08-17T04:21:43.459Z,16.57
2022-08-17T04:24:11.068Z,15.85
2022-08-17T04:26:53.937Z,19.02
2022-08-17T04:29:22.259Z,17.00
2022-08-17T04:31:48.878Z,17.58
2022-08-17T04:34:19.691Z,15.63
2022-08-17T04:36:50.093Z,17.60
2022-08-17T04:39:17.013Z,17.98
2022-08-17T04:42:01.953Z,19.42
2022-08-17T04:44:37.450Z,15.25
2022-08-17T04:47:05.169Z,14.63
2022-08-17T04:49:32.651Z,14.52
2022-08-17T04:52:04.366Z,19.85
2022-08-17T04:54:31.240Z,16.30
2022-08-17T04:56:57.717Z,16.70
2022-08-17T04:59:24.257Z,17.10
2022-08-17T05:01:52.010Z,17.42
2022-08-17T05:04:34.217Z,17.60
2022-08-17T05:07:02.169Z,15.63
2022-08-17T05:09:29.071Z,19.67
2022-08-17T05:12:01.465Z,17.57
2022-08-17T05:14:33.000Z,17.05
2022-08-17T05:17:00.277Z,16.20
2022-08-17T05:19:28.766Z,15.82
2022-08-17T05:21:55.265Z,16.20
2022-08-17T05:24:38.480Z,19.80
2022-08-17T05:27:06.526Z,20.60
2022-08-17T05:29:35.784Z,17.38
2022-08-17T05:32:39.692Z,16.83
2022-08-17T05:35:00.549Z,14.70
2022-08-17T05:37:27.926Z,17.47
2022-08-17T05:39:54.520Z,14.27
2022-08-17T05:42:21.638Z,14.73
2022-08-17T05:44:48.241Z,14.25
2022-08-17T05:47:14.810Z,16.50
2022-08-17T05:49:41.296Z,15.50
2022-08-17T05:52:22.433Z,16.90
2022-08-17T05:55:03.917Z,17.42
2022-08-17T05:57:39.545Z,16.13
2022-08-17T06:00:15.320Z,15.15
2022-08-17T06:03:07.586Z,15.43
2022-08-17T06:05:37.064Z,14.73
2022-08-17T06:08:42.471Z,16.77
2022-08-17T06:11:26.891Z,21.30
2022-08-17T06:14:49.581Z,19.13
2022-08-17T06:17:18.909Z,15.97
2022-08-17T06:20:01.766Z,18.85
2022-08-17T06:22:33.499Z,13.35
2022-08-17T06:25:10.014Z,16.17
2022-08-17T06:27:46.718Z,12.75
2022-08-17T06:30:21.418Z,12.50
2022-08-17T06:32:50.140Z,15.35
2022-08-17T06:35:32.038Z,11.07
2022-08-17T06:38:09.733Z,11.80
2022-08-17T06:41:09.465Z,11.13
2022-08-17T06:43:48.097Z,15.00
2022-08-17T06:46:29.917Z,9.93
2022-08-17T06:49:10.445Z,9.25
2022-08-17T06:52:45.629Z,8.98
2022-08-17T06:55:17.990Z,9.50
2022-08-17T06:57:57.565Z,9.97
2022-08-17T07:00:28.093Z,10.00
2022-08-17T07:03:20.921Z,9.68
2022-08-17T07:06:21.161Z,10.70
2022-08-17T07:09:01.102Z,8.63
2022-08-17T07:11:32.264Z,9.73
2022-08-17T07:14:29.304Z,9.65
2022-08-17T07:16:58.516Z,10.00
2022-08-17T07:19:27.776Z,8.55
2022-08-17T07:22:18.382Z,8.38
2022-08-17T07:24:57.165Z,8.77
2022-08-17T07:27:27.710Z,11.32
2022-08-17T07:30:10.303Z,9.10
2022-08-17T07:32:43.048Z,10.05
2022-08-17T07:35:20.011Z,9.25
2022-08-17T07:37:53.171Z,9.30
2022-08-17T07:40:21.473Z,8.00
2022-08-17T07:43:23.113Z,8.40
2022-08-17T07:46:14.260Z,8.45
2022-08-17T07:48:43.318Z,10.75
2022-08-17T07:51:28.865Z,8.57
2022-08-17T07:54:13.955Z,9.98
2022-08-17T07:57:00.543Z,10.15
2022-08-17T07:59:34.407Z,9.63
2022-08-17T08:02:15.691Z,9.20
2022-08-17T08:05:02.476Z,7.70
2022-08-17T08:07:38.951Z,13.95
2022-08-17T08:10:14.013Z,8.65
2022-08-17T08:12:44.904Z,8.82
2022-08-17T08:15:22.283Z,11.02
2022-08-17T08:17:51.983Z,9.30
2022-08-17T08:20:52.184Z,9.40
2022-08-17T08:23:12.013Z,8.30
2022-08-17T08:25:53.353Z,7.30
2022-08-17T08:28:46.397Z,8.93
2022-08-17T08:31:18.746Z,9.93
2022-08-17T08:34:03.975Z,8.15
2022-08-17T08:36:57.074Z,12.88
2022-08-17T08:39:40.431Z,8.88
2022-08-17T08:42:08.895Z,11.82
2022-08-17T08:45:16.351Z,8.83
2022-08-17T08:48:05.429Z,8.90
2022-08-17T08:50:50.365Z,11.77
2022-08-17T08:53:45.959Z,12.30
2022-08-17T08:56:31.478Z,12.13
2022-08-17T08:59:16.249Z,11.97
2022-08-17T09:01:55.782Z,9.07
2022-08-17T09:04:44.951Z,13.75
2022-08-17T09:07:37.029Z,10.73
2022-08-17T09:10:29.862Z,10.88
2022-08-17T09:13:27.666Z,8.70
2022-08-17T09:15:59.211Z,10.90
2022-08-17T09:19:02.508Z,9.82
2022-08-17T09:21:26.233Z,10.50
2022-08-17T09:24:12.767Z,13.32
2022-08-17T09:26:39.452Z,11.20
2022-08-17T09:29:11.005Z,10.15
2022-08-17T09:31:46.441Z,10.70
2022-08-17T09:34:18.276Z,10.73
2022-08-17T09:36:52.256Z,8.93
2022-08-17T09:39:41.749Z,9.00
2022-08-17T09:42:18.829Z,8.55
2022-08-17T09:44:58.403Z,12.05
2022-08-17T09:47:46.585Z,10.27
2022-08-17T09:51:05.377Z,8.90
2022-08-17T09:53:13.858Z,9.03
2022-08-17T09:55:55.344Z,8.95
2022-08-17T09:58:40.554Z,9.77
2022-08-17T10:01:36.503Z,8.50
2022-08-17T10:04:20.378Z,10.00
2022-08-17T10:06:52.843Z,8.27
2022-08-17T10:09:30.060Z,10.75
2022-08-17T10:12:20.271Z,9.98
2022-08-17T10:15:09.439Z,10.68
2022-08-17T10:17:45.195Z,9.73
2022-08-17T10:20:23.510Z,11.07
2022-08-17T10:23:13.693Z,12.52
2022-08-17T10:26:04.330Z,9.48
2022-08-17T10:28:49.076Z,9.05
2022-08-17T10:31:35.057Z,9.50
2022-08-17T10:34:30.143Z,10.50
2022-08-17T10:37:11.601Z,9.43
2022-08-17T10:40:02.585Z,9.95
2022-08-17T10:42:42.690Z,21.30
2022-08-17T10:45:28.242Z,12.27
2022-08-17T10:48:31.059Z,8.90
2022-08-17T10:51:01.399Z,11.60
2022-08-17T10:53:38.734Z,8.40
2022-08-17T10:56:13.025Z,10.77
2022-08-17T10:58:55.887Z,9.35
2022-08-17T11:01:58.314Z,9.47
2022-08-17T11:04:46.042Z,10.20
2022-08-17T11:07:25.753Z,10.25
2022-08-17T11:10:23.817Z,10.82
2022-08-17T11:12:59.287Z,10.48
2022-08-17T11:15:37.367Z,8.93
2022-08-17T11:18:22.188Z,9.38
2022-08-17T11:21:09.327Z,11.25
2022-08-17T11:24:11.376Z,10.15
2022-08-17T11:26:46.274Z,8.52
2022-08-17T11:29:24.796Z,8.63
2022-08-17T11:32:05.439Z,8.98
2022-08-17T11:34:32.414Z,9.27
2022-08-17T11:37:24.535Z,13.55
2022-08-17T11:40:03.316Z,11.18
2022-08-17T11:42:36.331Z,13.60
2022-08-17T11:45:32.403Z,11.32
2022-08-17T11:48:50.529Z,12.15
2022-08-17T11:51:33.775Z,9.68
2022-08-17T11:56:52.837Z,9.03
2022-08-17T11:59:39.632Z,10.10
2022-08-17T12:02:35.256Z,8.55
2022-08-17T12:05:02.718Z,9.20
2022-08-17T12:07:32.724Z,12.00
2022-08-17T12:10:00.127Z,7.90
2022-08-17T12:12:34.171Z,8.60
2022-08-17T12:15:12.539Z,8.73
2022-08-17T12:17:52.433Z,8.13
2022-08-17T12:20:41.009Z,9.80
2022-08-17T12:23:41.585Z,8.40
2022-08-17T12:26:19.392Z,9.15
2022-08-17T12:28:51.959Z,9.15
2022-08-17T12:31:45.785Z,9.80
2022-08-17T12:34:22.152Z,8.45
2022-08-17T12:36:50.351Z,7.80
2022-08-17T12:39:24.964Z,7.47
2022-08-17T12:41:56.342Z,8.05
2022-08-17T12:44:28.190Z,9.52
2022-08-17T12:47:07.574Z,8.77
2022-08-17T12:49:36.960Z,10.90
2022-08-17T12:52:08.430Z,9.60
2022-08-17T12:55:03.499Z,9.02
2022-08-17T12:57:38.957Z,9.57
2022-08-17T13:00:17.583Z,8.13
2022-08-17T13:02:51.565Z,8.07
2022-08-17T13:05:19.108Z,11.93
2022-08-17T13:07:46.623Z,11.27
2022-08-17T13:10:17.445Z,8.93
2022-08-17T13:12:44.058Z,8.85
2022-08-17T13:15:20.362Z,9.77
2022-08-17T13:17:56.658Z,11.38
2022-08-17T13:20:23.305Z,9.35
2022-08-17T13:22:55.476Z,10.93
2022-08-17T13:25:22.681Z,9.85
2022-08-17T13:27:51.125Z,12.17
2022-08-17T13:30:30.036Z,9.07
2022-08-17T13:32:57.447Z,10.60
2022-08-17T13:35:43.605Z,9.70
2022-08-17T13:38:34.730Z,9.90
2022-08-17T13:41:03.396Z,9.77
2022-08-17T13:43:52.343Z,9.90
2022-08-17T13:46:22.089Z,13.82
2022-08-17T13:49:01.359Z,11.65
2022-08-17T13:51:34.404Z,10.00
2022-08-17T13:54:04.702Z,11.87
2022-08-17T13:56:54.706Z,11.32
2022-08-17T13:59:54.513Z,13.57
2022-08-17T14:02:23.141Z,13.93
2022-08-17T14:04:56.202Z,13.75
2022-08-17T14:07:29.622Z,10.57
2022-08-17T14:10:10.017Z,10.57
2022-08-17T14:12:38.757Z,12.30
2022-08-17T14:15:13.225Z,10.88
2022-08-17T14:17:39.804Z,12.30
2022-08-17T14:20:09.585Z,12.60
2022-08-17T14:22:39.552Z,11.82
2022-08-17T14:25:10.410Z,11.38
2022-08-17T14:27:43.268Z,12.77
2022-08-17T14:30:22.763Z,12.70
2022-08-17T14:32:49.581Z,11.97
2022-08-17T14:35:16.359Z,13.02
2022-08-17T14:37:45.813Z,14.70
2022-08-17T14:40:15.069Z,14.45
2022-08-17T14:42:43.770Z,13.30
2022-08-17T14:45:31.972Z,13.13
2022-08-17T14:48:01.099Z,14.45
2022-08-17T14:50:27.696Z,16.50
2022-08-17T14:52:56.039Z,12.30
2022-08-17T14:55:24.967Z,13.55
2022-08-17T14:57:51.739Z,14.60
2022-08-17T15:00:18.522Z,12.95
2022-08-17T15:02:54.164Z,14.73
2022-08-17T15:05:24.542Z,16.83
2022-08-17T15:07:53.547Z,18.40
2022-08-17T15:10:20.857Z,17.33
2022-08-17T15:12:47.558Z,15.13
2022-08-17T15:15:16.260Z,17.25
2022-08-17T15:17:47.107Z,20.75
2022-08-17T15:20:19.276Z,19.63
2022-08-17T15:22:50.140Z,18.13
2022-08-17T15:25:18.910Z,18.67
2022-08-17T15:27:45.478Z,19.15
2022-08-17T15:30:12.360Z,15.45
2022-08-17T15:32:40.879Z,15.63
2022-08-17T15:35:17.780Z,15.80
2022-08-17T15:37:45.204Z,17.45
2022-08-17T15:40:12.621Z,18.95
2022-08-17T15:42:40.427Z,16.40
2022-08-17T15:45:10.933Z,16.08
2022-08-17T15:47:37.618Z,15.30
2022-08-17T15:50:06.413Z,16.70
2022-08-17T15:52:40.261Z,16.88
2022-08-17T15:55:10.764Z,24.05
2022-08-17T15:57:37.613Z,16.83
2022-08-17T16:00:06.070Z,14.53
2022-08-17T16:03:45.128Z,17.00
2022-08-17T16:05:24.814Z,16.20
2022-08-17T16:07:53.610Z,16.50
2022-08-17T16:10:21.143Z,16.95
2022-08-17T16:12:49.522Z,16.47
2022-08-17T16:15:17.172Z,15.55
2022-08-17T16:17:43.791Z,11.93
2022-08-17T16:20:20.579Z,13.27
2022-08-17T16:22:49.077Z,12.80
2022-08-17T16:25:21.814Z,14.50
2022-08-17T16:27:50.494Z,12.65
2022-08-17T16:30:18.017Z,14.77
2022-08-17T16:32:45.300Z,16.38
2022-08-17T16:35:14.360Z,15.23
2022-08-17T16:37:41.815Z,13.30
2022-08-17T16:40:12.656Z,14.18
2022-08-17T16:42:39.764Z,12.63
2022-08-17T16:45:13.072Z,12.68
2022-08-17T16:50:32.751Z,12.77
2022-08-17T16:53:10.691Z,12.55
2022-08-17T16:55:37.827Z,12.70
2022-08-17T16:58:05.346Z,10.88
2022-08-17T17:00:33.456Z,13.60
2022-08-17T17:03:20.239Z,13.93
2022-08-17T17:06:14.121Z,11.60
2022-08-17T17:08:49.668Z,13.43
2022-08-17T17:11:23.493Z,11.48
2022-08-17T17:13:58.473Z,12.70
2022-08-17T17:17:07.966Z,19.47
2022-08-17T17:19:53.804Z,21.27
2022-08-17T17:22:55.580Z,16.85
2022-08-17T17:25:32.583Z,25.23
2022-08-17T17:28:14.631Z,19.38
2022-08-17T17:30:50.118Z,16.07
2022-08-17T17:33:34.926Z,17.98
2022-08-17T17:36:38.329Z,14.88
2022-08-17T17:39:10.708Z,17.95
2022-08-17T17:41:44.612Z,17.15
2022-08-17T17:44:15.293Z,17.57
2022-08-17T17:46:50.383Z,19.55
2022-08-17T17:49:18.285Z,16.98
2022-08-17T17:52:08.065Z,14.80
2022-08-17T17:54:42.414Z,18.05
2022-08-17T17:57:25.798Z,17.80
2022-08-17T18:00:13.384Z,19.20
2022-08-17T18:02:51.933Z,19.58
2022-08-17T18:05:39.442Z,22.58
2022-08-17T18:08:38.145Z,17.10
2022-08-17T18:11:12.416Z,18.93
2022-08-17T18:14:18.560Z,17.90
2022-08-17T18:16:46.514Z,19.35
2022-08-17T18:19:22.560Z,20.25
2022-08-17T18:21:53.245Z,24.17
2022-08-17T18:24:35.854Z,21.57
2022-08-17T18:27:18.958Z,20.35
2022-08-17T18:29:55.063Z,20.50
2022-08-17T18:32:38.047Z,22.40
2022-08-17T18:35:14.279Z,18.95
2022-08-17T18:37:44.929Z,22.40
2022-08-17T18:40:35.821Z,19.95
2022-08-17T18:43:12.950Z,24.42
2022-08-17T18:48:25.675Z,27.88
2022-08-17T18:50:57.115Z,25.37
2022-08-17T18:53:34.546Z,24.02
2022-08-17T18:56:44.109Z,25.98
2022-08-17T18:59:22.689Z,26.30
2022-08-17T19:02:44.229Z,26.00
2022-08-17T19:05:13.532Z,27.10
2022-08-17T19:07:43.577Z,27.27
2022-08-17T19:10:22.190Z,29.60
2022-08-17T19:13:13.755Z,30.02
2022-08-17T19:16:12.347Z,28.25
2022-08-17T19:19:02.083Z,27.07
2022-08-17T19:21:42.161Z,29.92
2022-08-17T19:24:25.132Z,25.90
2022-08-17T19:26:56.663Z,25.85
2022-08-17T19:29:43.108Z,29.58
2022-08-17T19:32:11.015Z,28.53
2022-08-17T19:34:39.463Z,28.25
2022-08-17T19:37:09.717Z,28.45
2022-08-17T19:39:58.908Z,27.30
2022-08-17T19:42:28.127Z,27.02
2022-08-17T19:45:26.942Z,27.77
2022-08-17T19:48:48.915Z,29.15
2022-08-17T19:51:34.500Z,28.25
2022-08-17T19:54:28.504Z,27.17
2022-08-17T19:57:01.684Z,22.15
2022-08-17T19:59:56.346Z,26.67
2022-08-17T20:02:41.695Z,30.02
2022-08-17T20:06:00.952Z,27.10
2022-08-17T20:08:29.816Z,27.77
2022-08-17T20:11:19.207Z,24.20
2022-08-17T20:14:10.660Z,28.90
2022-08-17T20:16:37.671Z,27.30
2022-08-17T20:19:28.342Z,28.63
2022-08-17T20:22:00.865Z,29.52
2022-08-17T20:24:37.965Z,25.27
2022-08-17T20:27:22.449Z,26.30
2022-08-17T20:30:33.103Z,24.95
2022-08-17T20:33:01.168Z,27.95
2022-08-17T20:35:33.298Z,26.70
2022-08-17T20:38:02.149Z,26.60
2022-08-17T20:40:42.767Z,32.47
2022-08-17T20:43:33.794Z,27.92
2022-08-17T20:46:31.315Z,29.08
2022-08-17T20:49:15.030Z,30.25
2022-08-17T20:52:01.555Z,25.20
2022-08-17T20:54:50.943Z,27.87
2022-08-17T20:57:40.090Z,26.58
2022-08-17T21:00:20.457Z,29.05
2022-08-17T21:02:49.790Z,31.48
2022-08-17T21:05:34.228Z,28.60
2022-08-17T21:08:15.768Z,30.47
2022-08-17T21:10:46.133Z,31.02
2022-08-17T21:13:13.439Z,35.13
2022-08-17T21:15:56.595Z,30.30
2022-08-17T21:18:38.713Z,31.45
2022-08-17T21:21:26.555Z,28.67
2022-08-17T21:24:07.760Z,28.45
2022-08-17T21:26:56.151Z,31.00
2022-08-17T21:29:33.947Z,29.35
2022-08-17T21:32:06.801Z,29.35
2022-08-17T21:34:43.580Z,27.77
2022-08-17T21:37:29.470Z,30.08
2022-08-17T21:40:23.249Z,28.73
2022-08-17T21:42:56.150Z,30.30
2022-08-17T21:45:29.484Z,28.35
2022-08-17T21:48:15.507Z,29.97
2022-08-17T21:50:44.534Z,30.30
2022-08-17T21:53:25.382Z,27.83
2022-08-17T21:55:53.831Z,30.55
2022-08-17T21:58:39.978Z,28.42
2022-08-17T22:01:23.700Z,31.10
2022-08-17T22:04:12.055Z,29.75
2022-08-17T22:06:52.370Z,32.35
2022-08-17T22:09:29.675Z,29.00
2022-08-17T22:12:03.740Z,29.98
2022-08-17T22:14:53.065Z,27.33
2022-08-17T22:17:25.707Z,26.90
2022-08-17T22:20:07.523Z,25.33
2022-08-17T22:22:59.820Z,27.33
2022-08-17T22:25:27.639Z,31.73
2022-08-17T22:28:00.293Z,29.10
2022-08-17T22:30:30.429Z,27.67
2022-08-17T22:32:57.190Z,30.15
2022-08-17T22:35:30.428Z,28.30
2022-08-17T22:37:59.096Z,29.80
2022-08-17T22:40:32.989Z,29.53
2022-08-17T22:43:03.064Z,26.08
2022-08-17T22:45:30.465Z,28.17
2022-08-17T22:47:58.908Z,29.73
2022-08-17T22:50:28.276Z,30.20
2022-08-17T22:53:22.035Z,27.17
2022-08-17T22:56:09.956Z,26.75
2022-08-17T22:59:01.191Z,25.75
2022-08-17T23:01:31.581Z,27.15
2022-08-17T23:04:04.151Z,27.00
2022-08-17T23:06:33.901Z,26.97
2022-08-17T23:09:03.946Z,29.70
2022-08-17T23:11:48.668Z,30.10
2022-08-17T23:14:19.100Z,24.58
2022-08-17T23:16:46.739Z,26.65
2022-08-17T23:19:17.070Z,25.20
2022-08-17T23:21:47.138Z,29.65
2022-08-17T23:24:23.107Z,24.83
2022-08-17T23:26:49.788Z,29.90
2022-08-17T23:29:16.502Z,28.70
2022-08-17T23:31:45.093Z,29.50
2022-08-17T23:34:13.635Z,28.58
2022-08-17T23:36:40.152Z,29.70
2022-08-17T23:39:07.572Z,28.75
2022-08-17T23:41:37.177Z,30.80
2022-08-17T23:44:05.063Z,31.83
2022-08-17T23:46:31.611Z,34.22
2022-08-17T23:48:59.479Z,35.63
2022-08-17T23:51:46.577Z,29.17
2022-08-17T23:54:26.030Z,33.72
2022-08-17T23:56:55.155Z,29.63
2022-08-17T23:59:23.299Z,27.98
